sensor_id;sensor_type;location;lat;lon;timestamp;pressure;altitude;pressure_sealevel;temperature;humidity
74778;BME280;63298;53.164;8.610;2023-04-03T00:00:04;103433.25;;;3.52;62.00
74778;BME280;63298;53.164;8.610;2023-04-03T00:02:29;103438.84;;;3.50;62.49
74778;BME280;63298;53.164;8.610;2023-04-03T00:04:55;103432.66;;;3.48;62.30
74778;BME280;63298;53.164;8.610;2023-04-03T00:07:20;103445.03;;;3.52;62.62
74778;BME280;63298;53.164;8.610;2023-04-03T00:09:45;103444.03;;;3.53;62.28
74778;BME280;63298;53.164;8.610;2023-04-03T00:12:11;103446.78;;;3.53;62.68
74778;BME280;63298;53.164;8.610;2023-04-03T00:14:36;103444.31;;;3.50;62.53
74778;BME280;63298;53.164;8.610;2023-04-03T00:17:02;103438.72;;;3.52;62.30
74778;BME280;63298;53.164;8.610;2023-04-03T00:19:27;103433.00;;;3.55;62.21
74778;BME280;63298;53.164;8.610;2023-04-03T00:21:52;103429.41;;;3.54;62.31
74778;BME280;63298;53.164;8.610;2023-04-03T00:24:18;103432.47;;;3.61;61.56
74778;BME280;63298;53.164;8.610;2023-04-03T00:26:43;103431.88;;;3.57;62.41
74778;BME280;63298;53.164;8.610;2023-04-03T00:29:08;103422.34;;;3.52;62.02
74778;BME280;63298;53.164;8.610;2023-04-03T00:31:34;103435.59;;;3.56;62.37
74778;BME280;63298;53.164;8.610;2023-04-03T00:33:59;103432.88;;;3.56;62.28
74778;BME280;63298;53.164;8.610;2023-04-03T00:36:24;103441.91;;;3.57;62.60
74778;BME280;63298;53.164;8.610;2023-04-03T00:38:50;103440.44;;;3.53;62.42
74778;BME280;63298;53.164;8.610;2023-04-03T00:41:16;103429.31;;;3.44;62.02
74778;BME280;63298;53.164;8.610;2023-04-03T00:43:41;103451.97;;;3.56;62.22
74778;BME280;63298;53.164;8.610;2023-04-03T00:46:06;103433.16;;;3.42;62.36
74778;BME280;63298;53.164;8.610;2023-04-03T00:48:42;103466.00;;;3.52;62.50
74778;BME280;63298;53.164;8.610;2023-04-03T00:51:13;103432.81;;;3.24;63.14
74778;BME280;63298;53.164;8.610;2023-04-03T00:53:43;103440.88;;;3.15;62.95
74778;BME280;63298;53.164;8.610;2023-04-03T00:56:13;103461.72;;;3.16;63.61
74778;BME280;63298;53.164;8.610;2023-04-03T00:58:43;103455.75;;;3.11;63.84
74778;BME280;63298;53.164;8.610;2023-04-03T01:01:13;103448.44;;;3.00;63.75
74778;BME280;63298;53.164;8.610;2023-04-03T01:03:41;103451.00;;;3.01;63.63
74778;BME280;63298;53.164;8.610;2023-04-03T01:06:06;103447.78;;;2.96;63.42
74778;BME280;63298;53.164;8.610;2023-04-03T01:08:35;103445.31;;;2.93;63.69
74778;BME280;63298;53.164;8.610;2023-04-03T01:11:00;103462.19;;;2.98;64.07
74778;BME280;63298;53.164;8.610;2023-04-03T01:13:30;103461.78;;;2.92;64.59
74778;BME280;63298;53.164;8.610;2023-04-03T01:15:55;103464.53;;;2.92;65.10
74778;BME280;63298;53.164;8.610;2023-04-03T01:18:30;103441.06;;;2.67;65.47
74778;BME280;63298;53.164;8.610;2023-04-03T01:26:37;103474.94;;;2.76;66.08
74778;BME280;63298;53.164;8.610;2023-04-03T01:29:04;103472.69;;;2.70;64.43
74778;BME280;63298;53.164;8.610;2023-04-03T01:34:01;103484.66;;;2.67;64.60
74778;BME280;63298;53.164;8.610;2023-04-03T01:36:29;103456.91;;;2.51;64.90
74778;BME280;63298;53.164;8.610;2023-04-03T01:38:56;103462.38;;;2.51;64.54
74778;BME280;63298;53.164;8.610;2023-04-03T01:41:22;103465.59;;;2.56;64.67
74778;BME280;63298;53.164;8.610;2023-04-03T01:43:48;103469.19;;;2.56;64.90
74778;BME280;63298;53.164;8.610;2023-04-03T01:46:16;103483.78;;;2.67;65.15
74778;BME280;63298;53.164;8.610;2023-04-03T01:48:41;103468.44;;;2.54;65.47
74778;BME280;63298;53.164;8.610;2023-04-03T01:51:07;103479.47;;;2.64;65.35
74778;BME280;63298;53.164;8.610;2023-04-03T01:53:32;103476.25;;;2.59;65.22
74778;BME280;63298;53.164;8.610;2023-04-03T01:55:58;103465.69;;;2.54;64.93
74778;BME280;63298;53.164;8.610;2023-04-03T01:58:23;103476.25;;;2.59;65.46
74778;BME280;63298;53.164;8.610;2023-04-03T02:00:49;103485.41;;;2.58;65.46
74778;BME280;63298;53.164;8.610;2023-04-03T02:03:14;103487.75;;;2.63;65.32
74778;BME280;63298;53.164;8.610;2023-04-03T02:05:40;103493.22;;;2.63;64.88
74778;BME280;63298;53.164;8.610;2023-04-03T02:08:05;103477.84;;;2.50;65.29
74778;BME280;63298;53.164;8.610;2023-04-03T02:10:31;103487.38;;;2.56;65.48
74778;BME280;63298;53.164;8.610;2023-04-03T02:12:56;103491.81;;;2.57;65.75
74778;BME280;63298;53.164;8.610;2023-04-03T02:15:22;103488.38;;;2.55;65.80
74778;BME280;63298;53.164;8.610;2023-04-03T02:17:47;103479.31;;;2.54;65.51
74778;BME280;63298;53.164;8.610;2023-04-03T02:20:13;103477.84;;;2.50;65.57
74778;BME280;63298;53.164;8.610;2023-04-03T02:22:38;103489.09;;;2.57;65.84
74778;BME280;63298;53.164;8.610;2023-04-03T02:25:04;103476.19;;;2.48;66.17
74778;BME280;63298;53.164;8.610;2023-04-03T02:27:30;103481.78;;;2.46;65.56
74778;BME280;63298;53.164;8.610;2023-04-03T02:29:58;103486.47;;;2.44;66.87
74778;BME280;63298;53.164;8.610;2023-04-03T02:32:26;103473.94;;;2.42;66.22
74778;BME280;63298;53.164;8.610;2023-04-03T02:34:53;103490.59;;;2.50;66.00
74778;BME280;63298;53.164;8.610;2023-04-03T02:37:18;103498.75;;;2.50;65.77
74778;BME280;63298;53.164;8.610;2023-04-03T02:39:44;103509.91;;;2.58;66.28
74778;BME280;63298;53.164;8.610;2023-04-03T02:42:10;103488.69;;;2.39;66.58
74778;BME280;63298;53.164;8.610;2023-04-03T02:47:19;103492.03;;;2.32;66.86
74778;BME280;63298;53.164;8.610;2023-04-03T02:52:24;103506.16;;;2.48;66.04
74778;BME280;63298;53.164;8.610;2023-04-03T02:54:53;103481.22;;;2.30;65.91
74778;BME280;63298;53.164;8.610;2023-04-03T02:57:26;103483.94;;;2.30;66.33
74778;BME280;63298;53.164;8.610;2023-04-03T02:59:56;103494.25;;;2.38;66.40
74778;BME280;63298;53.164;8.610;2023-04-03T03:02:23;103486.16;;;2.25;66.64
74778;BME280;63298;53.164;8.610;2023-04-03T03:04:49;103481.94;;;2.21;66.90
74778;BME280;63298;53.164;8.610;2023-04-03T03:07:15;103483.16;;;2.17;66.41
74778;BME280;63298;53.164;8.610;2023-04-03T03:09:41;103488.25;;;2.22;66.37
74778;BME280;63298;53.164;8.610;2023-04-03T03:12:07;103483.66;;;2.22;66.68
74778;BME280;63298;53.164;8.610;2023-04-03T03:14:37;103482.91;;;2.20;66.62
74778;BME280;63298;53.164;8.610;2023-04-03T03:17:04;103494.44;;;2.24;66.52
74778;BME280;63298;53.164;8.610;2023-04-03T03:19:31;103486.50;;;2.21;66.34
74778;BME280;63298;53.164;8.610;2023-04-03T03:22:01;103485.75;;;2.18;66.02
74778;BME280;63298;53.164;8.610;2023-04-03T03:24:27;103486.88;;;2.16;66.73
74778;BME280;63298;53.164;8.610;2023-04-03T03:26:53;103484.50;;;2.11;67.13
74778;BME280;63298;53.164;8.610;2023-04-03T03:29:19;103489.19;;;2.09;66.55
74778;BME280;63298;53.164;8.610;2023-04-03T03:31:47;103483.75;;;2.09;66.48
74778;BME280;63298;53.164;8.610;2023-04-03T03:34:14;103496.25;;;2.12;66.15
74778;BME280;63298;53.164;8.610;2023-04-03T03:36:41;103503.06;;;2.17;66.61
74778;BME280;63298;53.164;8.610;2023-04-03T03:39:07;103509.16;;;2.21;66.71
74778;BME280;63298;53.164;8.610;2023-04-03T03:41:33;103511.91;;;2.21;66.67
74778;BME280;63298;53.164;8.610;2023-04-03T03:44:02;103484.72;;;2.08;66.92
74778;BME280;63298;53.164;8.610;2023-04-03T03:46:27;103494.63;;;2.09;66.28
74778;BME280;63298;53.164;8.610;2023-04-03T03:48:55;103493.84;;;2.07;66.36
74778;BME280;63298;53.164;8.610;2023-04-03T03:51:21;103522.66;;;2.23;66.92
74778;BME280;63298;53.164;8.610;2023-04-03T03:53:47;103491.13;;;2.07;66.45
74778;BME280;63298;53.164;8.610;2023-04-03T03:56:13;103520.59;;;2.26;66.47
74778;BME280;63298;53.164;8.610;2023-04-03T03:58:38;103511.13;;;2.19;66.32
74778;BME280;63298;53.164;8.610;2023-04-03T04:01:05;103496.38;;;2.10;66.48
74778;BME280;63298;53.164;8.610;2023-04-03T04:03:31;103526.66;;;2.30;66.25
74778;BME280;63298;53.164;8.610;2023-04-03T04:05:56;103510.03;;;2.22;66.43
74778;BME280;63298;53.164;8.610;2023-04-03T04:08:22;103519.72;;;2.26;67.00
74778;BME280;63298;53.164;8.610;2023-04-03T04:10:48;103503.94;;;2.18;66.26
74778;BME280;63298;53.164;8.610;2023-04-03T04:13:14;103522.66;;;2.23;66.33
74778;BME280;63298;53.164;8.610;2023-04-03T04:15:39;103532.34;;;2.27;66.26
74778;BME280;63298;53.164;8.610;2023-04-03T04:18:05;103509.88;;;2.12;66.23
74778;BME280;63298;53.164;8.610;2023-04-03T04:20:30;103517.03;;;2.13;66.61
74778;BME280;63298;53.164;8.610;2023-04-03T04:22:55;103530.19;;;2.19;66.80
74778;BME280;63298;53.164;8.610;2023-04-03T04:25:21;103538.34;;;2.19;66.58
74778;BME280;63298;53.164;8.610;2023-04-03T04:27:46;103531.06;;;2.20;66.75
74778;BME280;63298;53.164;8.610;2023-04-03T04:30:12;103535.88;;;2.16;66.49
74778;BME280;63298;53.164;8.610;2023-04-03T04:32:38;103539.56;;;2.15;66.18
74778;BME280;63298;53.164;8.610;2023-04-03T04:35:03;103553.19;;;2.15;66.61
74778;BME280;63298;53.164;8.610;2023-04-03T04:37:29;103552.31;;;2.14;67.04
74778;BME280;63298;53.164;8.610;2023-04-03T04:39:56;103531.94;;;1.96;66.72
74778;BME280;63298;53.164;8.610;2023-04-03T04:42:21;103547.22;;;2.10;66.87
74778;BME280;63298;53.164;8.610;2023-04-03T04:44:54;103533.16;;;1.92;67.32
74778;BME280;63298;53.164;8.610;2023-04-03T04:47:19;103533.25;;;1.91;67.16
74778;BME280;63298;53.164;8.610;2023-04-03T04:49:45;103530.75;;;1.88;67.00
74778;BME280;63298;53.164;8.610;2023-04-03T04:52:14;103543.50;;;1.87;67.07
74778;BME280;63298;53.164;8.610;2023-04-03T04:54:40;103540.66;;;1.89;66.82
74778;BME280;63298;53.164;8.610;2023-04-03T04:57:05;103551.31;;;1.92;67.26
74778;BME280;63298;53.164;8.610;2023-04-03T04:59:30;103538.28;;;1.84;67.09
74778;BME280;63298;53.164;8.610;2023-04-03T05:01:56;103557.41;;;1.95;66.84
74778;BME280;63298;53.164;8.610;2023-04-03T05:04:21;103566.09;;;2.00;67.56
74778;BME280;63298;53.164;8.610;2023-04-03T05:06:46;103563.63;;;1.97;66.86
74778;BME280;63298;53.164;8.610;2023-04-03T05:09:12;103560.03;;;1.97;66.99
74778;BME280;63298;53.164;8.610;2023-04-03T05:11:37;103552.41;;;1.89;67.54
74778;BME280;63298;53.164;8.610;2023-04-03T05:14:03;103561.09;;;1.94;67.54
74778;BME280;63298;53.164;8.610;2023-04-03T05:16:28;103549.78;;;1.88;67.54
74778;BME280;63298;53.164;8.610;2023-04-03T05:18:53;103550.66;;;1.88;67.34
74778;BME280;63298;53.164;8.610;2023-04-03T05:21:20;103555.13;;;1.89;67.53
74778;BME280;63298;53.164;8.610;2023-04-03T05:23:45;103564.59;;;1.96;67.16
74778;BME280;63298;53.164;8.610;2023-04-03T05:26:10;103554.78;;;1.94;67.55
74778;BME280;63298;53.164;8.610;2023-04-03T05:28:36;103561.97;;;1.95;67.03
74778;BME280;63298;53.164;8.610;2023-04-03T05:31:01;103567.31;;;1.96;67.11
74778;BME280;63298;53.164;8.610;2023-04-03T05:33:27;103562.31;;;1.90;67.21
74778;BME280;63298;53.164;8.610;2023-04-03T05:35:53;103566.53;;;1.94;67.35
74778;BME280;63298;53.164;8.610;2023-04-03T05:38:19;103575.13;;;2.01;66.96
74778;BME280;63298;53.164;8.610;2023-04-03T05:40:44;103568.06;;;1.98;67.36
74778;BME280;63298;53.164;8.610;2023-04-03T05:43:09;103568.56;;;2.03;67.55
74778;BME280;63298;53.164;8.610;2023-04-03T05:45:35;103579.13;;;2.08;67.36
74778;BME280;63298;53.164;8.610;2023-04-03T05:48:00;103585.56;;;2.07;67.24
74778;BME280;63298;53.164;8.610;2023-04-03T05:50:26;103581.09;;;2.06;67.27
74778;BME280;63298;53.164;8.610;2023-04-03T05:52:52;103576.75;;;2.03;67.67
74778;BME280;63298;53.164;8.610;2023-04-03T05:55:23;103600.34;;;2.15;67.41
74778;BME280;63298;53.164;8.610;2023-04-03T05:57:48;103588.59;;;2.15;67.59
74778;BME280;63298;53.164;8.610;2023-04-03T06:00:15;103589.97;;;2.21;67.69
74778;BME280;63298;53.164;8.610;2023-04-03T06:02:41;103605.72;;;2.28;67.91
74778;BME280;63298;53.164;8.610;2023-04-03T06:05:08;103589.75;;;2.24;67.78
74778;BME280;63298;53.164;8.610;2023-04-03T06:07:33;103597.22;;;2.33;67.61
74778;BME280;63298;53.164;8.610;2023-04-03T06:09:59;103605.69;;;2.41;67.63
74778;BME280;63298;53.164;8.610;2023-04-03T06:12:25;103608.41;;;2.41;67.81
74778;BME280;63298;53.164;8.610;2023-04-03T06:14:50;103611.44;;;2.49;67.72
74778;BME280;63298;53.164;8.610;2023-04-03T06:17:16;103613.59;;;2.56;67.35
74778;BME280;63298;53.164;8.610;2023-04-03T06:19:42;103618.69;;;2.61;67.08
74778;BME280;63298;53.164;8.610;2023-04-03T06:22:07;103599.09;;;2.56;67.47
74778;BME280;63298;53.164;8.610;2023-04-03T06:24:33;103613.50;;;2.69;67.21
74778;BME280;63298;53.164;8.610;2023-04-03T06:26:58;103608.31;;;2.66;66.95
74778;BME280;63298;53.164;8.610;2023-04-03T06:29:24;103614.03;;;2.74;67.26
74778;BME280;63298;53.164;8.610;2023-04-03T06:31:50;103618.00;;;2.81;67.17
74778;BME280;63298;53.164;8.610;2023-04-03T06:34:16;103614.94;;;2.86;66.55
74778;BME280;63298;53.164;8.610;2023-04-03T06:36:42;103608.63;;;2.85;66.70
74778;BME280;63298;53.164;8.610;2023-04-03T06:39:11;103632.44;;;2.94;66.63
74778;BME280;63298;53.164;8.610;2023-04-03T06:41:38;103614.97;;;2.97;66.68
74778;BME280;63298;53.164;8.610;2023-04-03T06:44:03;103610.91;;;3.02;66.59
74778;BME280;63298;53.164;8.610;2023-04-03T06:46:29;103621.84;;;3.14;66.25
74778;BME280;63298;53.164;8.610;2023-04-03T06:48:54;103630.78;;;3.27;66.07
74778;BME280;63298;53.164;8.610;2023-04-03T06:51:22;103629.22;;;3.35;65.91
74778;BME280;63298;53.164;8.610;2023-04-03T06:53:48;103637.66;;;3.43;65.82
74778;BME280;63298;53.164;8.610;2023-04-03T06:56:14;103629.84;;;3.50;65.26
74778;BME280;63298;53.164;8.610;2023-04-03T06:58:39;103633.44;;;3.51;64.65
74778;BME280;63298;53.164;8.610;2023-04-03T07:01:04;103643.88;;;3.57;65.16
74778;BME280;63298;53.164;8.610;2023-04-03T07:03:30;103645.34;;;3.61;64.56
74778;BME280;63298;53.164;8.610;2023-04-03T07:05:55;103647.59;;;3.67;63.78
74778;BME280;63298;53.164;8.610;2023-04-03T07:08:20;103652.47;;;3.74;64.17
74778;BME280;63298;53.164;8.610;2023-04-03T07:10:46;103655.81;;;3.78;64.33
74778;BME280;63298;53.164;8.610;2023-04-03T07:13:11;103650.72;;;3.84;63.55
74778;BME280;63298;53.164;8.610;2023-04-03T07:15:36;103644.03;;;3.88;63.54
74778;BME280;63298;53.164;8.610;2023-04-03T07:18:02;103645.00;;;3.99;63.27
74778;BME280;63298;53.164;8.610;2023-04-03T07:20:27;103643.50;;;4.06;63.31
74778;BME280;63298;53.164;8.610;2023-04-03T07:22:53;103644.88;;;4.11;63.16
74778;BME280;63298;53.164;8.610;2023-04-03T07:25:18;103647.97;;;4.18;62.94
74778;BME280;63298;53.164;8.610;2023-04-03T07:27:44;103648.84;;;4.18;61.91
74778;BME280;63298;53.164;8.610;2023-04-03T07:30:09;103658.25;;;4.25;61.67
74778;BME280;63298;53.164;8.610;2023-04-03T07:32:35;103644.75;;;4.24;61.05
74778;BME280;63298;53.164;8.610;2023-04-03T07:35:00;103637.38;;;4.24;60.77
74778;BME280;63298;53.164;8.610;2023-04-03T07:37:26;103651.63;;;4.39;60.60
74778;BME280;63298;53.164;8.610;2023-04-03T07:39:51;103651.78;;;4.49;60.38
74778;BME280;63298;53.164;8.610;2023-04-03T07:42:17;103627.78;;;4.52;61.17
74778;BME280;63298;53.164;8.610;2023-04-03T07:44:42;103653.03;;;4.76;60.55
74778;BME280;63298;53.164;8.610;2023-04-03T07:47:07;103643.56;;;4.81;60.31
74778;BME280;63298;53.164;8.610;2023-04-03T07:49:33;103659.81;;;4.93;59.35
74778;BME280;63298;53.164;8.610;2023-04-03T07:51:58;103644.25;;;4.94;59.41
74778;BME280;63298;53.164;8.610;2023-04-03T07:54:23;103652.16;;;5.08;59.34
74778;BME280;63298;53.164;8.610;2023-04-03T07:56:49;103647.28;;;5.11;59.18
74778;BME280;63298;53.164;8.610;2023-04-03T07:59:14;103649.09;;;5.22;59.26
74778;BME280;63298;53.164;8.610;2023-04-03T08:01:39;103648.03;;;5.34;59.49
74778;BME280;63298;53.164;8.610;2023-04-03T08:04:05;103651.56;;;5.46;59.54
74778;BME280;63298;53.164;8.610;2023-04-03T08:06:31;103644.06;;;5.48;59.51
74778;BME280;63298;53.164;8.610;2023-04-03T08:08:56;103650.81;;;5.64;59.49
74778;BME280;63298;53.164;8.610;2023-04-03T08:11:22;103651.44;;;5.78;58.74
74778;BME280;63298;53.164;8.610;2023-04-03T08:13:47;103649.16;;;5.83;58.68
74778;BME280;63298;53.164;8.610;2023-04-03T08:16:16;103661.41;;;5.99;58.88
74778;BME280;63298;53.164;8.610;2023-04-03T08:18:43;103650.31;;;6.01;57.56
74778;BME280;63298;53.164;8.610;2023-04-03T08:21:10;103650.47;;;6.09;58.28
74778;BME280;63298;53.164;8.610;2023-04-03T08:23:37;103638.38;;;6.12;58.23
74778;BME280;63298;53.164;8.610;2023-04-03T08:26:11;103647.81;;;6.28;57.29
74778;BME280;63298;53.164;8.610;2023-04-03T08:28:38;103624.84;;;6.20;56.91
74778;BME280;63298;53.164;8.610;2023-04-03T08:31:05;103610.72;;;6.24;57.43
74778;BME280;63298;53.164;8.610;2023-04-03T08:33:32;103646.53;;;6.42;57.11
74778;BME280;63298;53.164;8.610;2023-04-03T08:35:57;103652.03;;;6.51;56.53
74778;BME280;63298;53.164;8.610;2023-04-03T08:38:23;103624.03;;;6.48;56.59
74778;BME280;63298;53.164;8.610;2023-04-03T08:41:01;103643.13;;;6.59;54.59
74778;BME280;63298;53.164;8.610;2023-04-03T08:44:05;103638.38;;;6.71;53.96
74778;BME280;63298;53.164;8.610;2023-04-03T08:49:04;103627.69;;;6.87;55.10
74778;BME280;63298;53.164;8.610;2023-04-03T08:51:32;103647.19;;;7.13;54.61
74778;BME280;63298;53.164;8.610;2023-04-03T08:54:05;103642.44;;;7.15;51.09
74778;BME280;63298;53.164;8.610;2023-04-03T08:56:33;103639.66;;;7.24;53.97
74778;BME280;63298;53.164;8.610;2023-04-03T08:59:04;103638.50;;;7.27;52.90
74778;BME280;63298;53.164;8.610;2023-04-03T09:01:35;103627.06;;;7.31;53.43
74778;BME280;63298;53.164;8.610;2023-04-03T09:04:02;103629.66;;;7.43;53.45
74778;BME280;63298;53.164;8.610;2023-04-03T09:06:32;103641.91;;;7.58;52.18
74778;BME280;63298;53.164;8.610;2023-04-03T09:09:15;103620.63;;;7.60;53.13
74778;BME280;63298;53.164;8.610;2023-04-03T09:12:16;103624.94;;;7.72;51.20
74778;BME280;63298;53.164;8.610;2023-04-03T09:15:00;103612.03;;;7.82;51.98
74778;BME280;63298;53.164;8.610;2023-04-03T09:20:39;103628.00;;;8.06;49.59
74778;BME280;63298;53.164;8.610;2023-04-03T09:25:42;103613.97;;;8.09;48.94
74778;BME280;63298;53.164;8.610;2023-04-03T09:28:08;103623.75;;;8.11;50.27
74778;BME280;63298;53.164;8.610;2023-04-03T09:30:34;103609.56;;;8.16;50.82
74778;BME280;63298;53.164;8.610;2023-04-03T09:32:59;103608.59;;;8.35;49.32
74778;BME280;63298;53.164;8.610;2023-04-03T09:35:32;103584.66;;;8.17;42.41
74778;BME280;63298;53.164;8.610;2023-04-03T09:38:17;103621.03;;;8.39;46.22
74778;BME280;63298;53.164;8.610;2023-04-03T09:41:06;103593.28;;;8.32;47.66
74778;BME280;63298;53.164;8.610;2023-04-03T09:43:33;103605.91;;;8.52;49.42
74778;BME280;63298;53.164;8.610;2023-04-03T09:48:57;103583.19;;;8.68;48.64
74778;BME280;63298;53.164;8.610;2023-04-03T09:51:27;103563.53;;;8.63;47.12
74778;BME280;63298;53.164;8.610;2023-04-03T09:53:54;103598.19;;;8.91;47.32
74778;BME280;63298;53.164;8.610;2023-04-03T09:56:24;103593.63;;;9.00;46.65
74778;BME280;63298;53.164;8.610;2023-04-03T10:01:31;103579.84;;;9.00;46.51
74778;BME280;63298;53.164;8.610;2023-04-03T10:04:18;103562.84;;;9.04;43.94
74778;BME280;63298;53.164;8.610;2023-04-03T10:06:46;103545.31;;;9.05;46.18
74778;BME280;63298;53.164;8.610;2023-04-03T10:12:10;103567.72;;;9.10;45.33
74778;BME280;63298;53.164;8.610;2023-04-03T10:14:38;103560.34;;;9.11;46.28
74778;BME280;63298;53.164;8.610;2023-04-03T10:17:29;103588.06;;;9.35;44.10
74778;BME280;63298;53.164;8.610;2023-04-03T10:20:23;103566.34;;;9.32;40.22
74778;BME280;63298;53.164;8.610;2023-04-03T10:25:45;103573.19;;;9.28;41.36
74778;BME280;63298;53.164;8.610;2023-04-03T10:28:21;103553.72;;;9.22;42.72
74778;BME280;63298;53.164;8.610;2023-04-03T10:36:32;103574.66;;;9.40;39.84
74778;BME280;63298;53.164;8.610;2023-04-03T10:47:20;103561.03;;;9.13;42.53
74778;BME280;63298;53.164;8.610;2023-04-03T10:53:25;103525.91;;;8.89;41.47
74778;BME280;63298;53.164;8.610;2023-04-03T10:56:07;103534.56;;;9.20;41.02
74778;BME280;63298;53.164;8.610;2023-04-03T10:58:39;103527.78;;;9.32;42.06
74778;BME280;63298;53.164;8.610;2023-04-03T11:01:50;103509.53;;;9.31;43.12
74778;BME280;63298;53.164;8.610;2023-04-03T11:03:58;103513.25;;;9.22;40.65
74778;BME280;63298;53.164;8.610;2023-04-03T11:06:30;103531.75;;;9.38;42.05
74778;BME280;63298;53.164;8.610;2023-04-03T11:09:25;103509.53;;;9.31;40.33
74778;BME280;63298;53.164;8.610;2023-04-03T11:11:57;103533.38;;;9.48;42.30
74778;BME280;63298;53.164;8.610;2023-04-03T11:14:30;103537.47;;;9.70;41.97
74778;BME280;63298;53.164;8.610;2023-04-03T11:17:21;103524.84;;;9.68;41.14
74778;BME280;63298;53.164;8.610;2023-04-03T11:22:32;103503.66;;;9.68;40.94
74778;BME280;63298;53.164;8.610;2023-04-03T11:27:48;103493.44;;;9.86;39.17
74778;BME280;63298;53.164;8.610;2023-04-03T11:36:12;103502.22;;;9.98;39.99
74778;BME280;63298;53.164;8.610;2023-04-03T11:38:44;103485.19;;;10.03;41.09
74778;BME280;63298;53.164;8.610;2023-04-03T11:41:12;103473.44;;;9.92;40.42
74778;BME280;63298;53.164;8.610;2023-04-03T11:46:57;103485.53;;;10.00;38.46
74778;BME280;63298;53.164;8.610;2023-04-03T11:49:52;103483.63;;;10.00;37.24
74778;BME280;63298;53.164;8.610;2023-04-03T12:16:04;103438.38;;;10.51;40.33
74778;BME280;63298;53.164;8.610;2023-04-03T12:18:43;103454.22;;;10.81;39.68
74778;BME280;63298;53.164;8.610;2023-04-03T12:21:10;103437.47;;;10.83;41.06
74778;BME280;63298;53.164;8.610;2023-04-03T12:26:43;103438.63;;;11.13;39.05
74778;BME280;63298;53.164;8.610;2023-04-03T12:40:10;103439.47;;;11.30;39.49
74778;BME280;63298;53.164;8.610;2023-04-03T12:46:33;103422.13;;;11.36;39.46
74778;BME280;63298;53.164;8.610;2023-04-03T12:48:59;103419.91;;;11.39;38.75
74778;BME280;63298;53.164;8.610;2023-04-03T12:51:43;103420.94;;;11.30;38.11
74778;BME280;63298;53.164;8.610;2023-04-03T12:54:18;103389.97;;;10.96;37.75
74778;BME280;63298;53.164;8.610;2023-04-03T12:56:44;103397.34;;;11.19;38.37
74778;BME280;63298;53.164;8.610;2023-04-03T12:59:23;103392.97;;;11.33;36.39
74778;BME280;63298;53.164;8.610;2023-04-03T13:01:59;103366.19;;;10.87;35.71
74778;BME280;63298;53.164;8.610;2023-04-03T13:04:26;103381.22;;;10.76;38.44
74778;BME280;63298;53.164;8.610;2023-04-03T13:06:52;103408.66;;;10.77;39.26
74778;BME280;63298;53.164;8.610;2023-04-03T13:09:21;103412.66;;;10.59;37.45
74778;BME280;63298;53.164;8.610;2023-04-03T13:11:49;103399.22;;;10.64;39.24
74778;BME280;63298;53.164;8.610;2023-04-03T13:14:20;103376.56;;;10.76;39.69
74778;BME280;63298;53.164;8.610;2023-04-03T13:16:53;103387.97;;;10.73;35.91
74778;BME280;63298;53.164;8.610;2023-04-03T13:19:18;103385.38;;;10.72;37.63
74778;BME280;63298;53.164;8.610;2023-04-03T13:21:44;103385.91;;;10.75;39.24
74778;BME280;63298;53.164;8.610;2023-04-03T13:24:10;103367.28;;;10.69;38.38
74778;BME280;63298;53.164;8.610;2023-04-03T13:26:36;103375.00;;;10.90;39.79
74778;BME280;63298;53.164;8.610;2023-04-03T13:29:16;103379.91;;;11.11;38.58
74778;BME280;63298;53.164;8.610;2023-04-03T13:31:44;103370.88;;;11.25;38.72
74778;BME280;63298;53.164;8.610;2023-04-03T13:36:38;103370.09;;;11.47;38.86
74778;BME280;63298;53.164;8.610;2023-04-03T13:41:40;103379.63;;;11.76;38.84
74778;BME280;63298;53.164;8.610;2023-04-03T13:46:46;103388.88;;;11.21;36.92
74778;BME280;63298;53.164;8.610;2023-04-03T13:51:43;103372.25;;;10.90;39.07
74778;BME280;63298;53.164;8.610;2023-04-03T13:54:25;103371.47;;;11.12;39.51
74778;BME280;63298;53.164;8.610;2023-04-03T13:56:57;103369.22;;;11.47;39.51
74778;BME280;63298;53.164;8.610;2023-04-03T13:59:34;103347.72;;;11.34;36.64
74778;BME280;63298;53.164;8.610;2023-04-03T14:04:56;103351.06;;;11.52;36.64
74778;BME280;63298;53.164;8.610;2023-04-03T14:07:22;103358.56;;;11.44;37.09
74778;BME280;63298;53.164;8.610;2023-04-03T14:09:48;103356.56;;;11.30;37.34
74778;BME280;63298;53.164;8.610;2023-04-03T14:12:26;103342.31;;;11.02;36.72
74778;BME280;63298;53.164;8.610;2023-04-03T14:14:53;103351.31;;;11.04;38.49
74778;BME280;63298;53.164;8.610;2023-04-03T14:17:22;103330.25;;;11.03;38.85
74778;BME280;63298;53.164;8.610;2023-04-03T14:19:49;103343.41;;;11.32;39.19
74778;BME280;63298;53.164;8.610;2023-04-03T14:22:19;103348.25;;;11.60;39.36
74778;BME280;63298;53.164;8.610;2023-04-03T14:24:45;103328.16;;;11.66;38.06
74778;BME280;63298;53.164;8.610;2023-04-03T14:27:17;103353.88;;;11.44;36.97
74778;BME280;63298;53.164;8.610;2023-04-03T14:29:42;103360.19;;;11.22;37.58
74778;BME280;63298;53.164;8.610;2023-04-03T14:32:15;103331.31;;;10.86;37.84
74778;BME280;63298;53.164;8.610;2023-04-03T14:34:41;103353.13;;;10.72;38.02
74778;BME280;63298;53.164;8.610;2023-04-03T14:37:18;103358.25;;;10.92;38.19
74778;BME280;63298;53.164;8.610;2023-04-03T14:39:44;103320.13;;;10.87;39.11
74778;BME280;63298;53.164;8.610;2023-04-03T14:42:16;103344.97;;;11.26;38.83
74778;BME280;63298;53.164;8.610;2023-04-03T14:44:42;103337.53;;;11.35;38.86
74778;BME280;63298;53.164;8.610;2023-04-03T14:47:12;103319.38;;;11.32;38.34
74778;BME280;63298;53.164;8.610;2023-04-03T14:49:39;103336.22;;;11.53;38.19
74778;BME280;63298;53.164;8.610;2023-04-03T14:52:05;103344.22;;;11.40;35.13
74778;BME280;63298;53.164;8.610;2023-04-03T14:54:31;103332.28;;;11.40;37.41
74778;BME280;63298;53.164;8.610;2023-04-03T14:56:58;103317.88;;;11.52;38.17
74778;BME280;63298;53.164;8.610;2023-04-03T14:59:31;103326.44;;;11.65;35.93
74778;BME280;63298;53.164;8.610;2023-04-03T15:01:56;103327.91;;;11.53;37.46